Time;durP1;ratioP1;P1;durP2;ratioP2;P2;SDS_P1;SDS_P2;PMS_P1;PMS_P2;Temp;Humidity;BMP_temperature;BMP_pressure;BME280_temperature;BME280_humidity;BME280_pressure;Samples;Min_cycle;Max_cycle;Signal;HPM_P1;HPM_P2
2021/01/08 00:01:03;;;;;;;2.26;2.06;;;;;;;18.25;46.22;100145.75;;;;-52
2021/01/08 00:04:03;;;;;;;2.65;2.43;;;;;;;18.23;46.24;100147.44;;;;-51
2021/01/08 00:07:03;;;;;;;3.12;2.36;;;;;;;18.21;46.26;100149.77;;;;-51
2021/01/08 00:10:03;;;;;;;2.68;2.48;;;;;;;18.18;46.23;100146.69;;;;-51
2021/01/08 00:13:03;;;;;;;2.56;2.36;;;;;;;18.17;46.25;100149.42;;;;-51
2021/01/08 00:16:03;;;;;;;2.67;2.47;;;;;;;18.15;46.27;100155.17;;;;-52
2021/01/08 00:19:03;;;;;;;2.50;2.30;;;;;;;18.13;46.25;100150.93;;;;-50
2021/01/08 00:22:03;;;;;;;2.53;2.33;;;;;;;18.12;46.26;100142.52;;;;-54
2021/01/08 00:25:03;;;;;;;2.65;2.41;;;;;;;18.09;46.29;100145.31;;;;-52
2021/01/08 00:28:03;;;;;;;2.37;2.13;;;;;;;18.07;46.33;100147.08;;;;-54
2021/01/08 00:31:03;;;;;;;2.74;2.35;;;;;;;18.05;46.23;100145.39;;;;-54
2021/01/08 00:34:03;;;;;;;2.49;2.29;;;;;;;18.03;46.32;100143.10;;;;-54
2021/01/08 00:37:03;;;;;;;2.49;2.29;;;;;;;18.01;46.28;100144.55;;;;-49
2021/01/08 00:40:03;;;;;;;2.80;2.39;;;;;;;18.00;46.30;100141.44;;;;-50
2021/01/08 00:43:03;;;;;;;2.49;2.29;;;;;;;17.97;46.33;100138.03;;;;-49
2021/01/08 00:46:03;;;;;;;2.53;2.33;;;;;;;17.96;46.32;100141.82;;;;-50
2021/01/08 00:49:03;;;;;;;2.91;2.20;;;;;;;17.95;46.30;100139.36;;;;-50
2021/01/08 00:52:03;;;;;;;2.46;2.26;;;;;;;17.93;46.31;100136.45;;;;-52
2021/01/08 00:55:03;;;;;;;2.37;2.17;;;;;;;17.92;46.35;100139.52;;;;-50
2021/01/08 00:58:03;;;;;;;2.43;2.23;;;;;;;17.91;46.34;100141.87;;;;-50
2021/01/08 01:01:03;;;;;;;2.25;2.05;;;;;;;17.89;46.36;100139.27;;;;-51
2021/01/08 01:04:03;;;;;;;2.59;2.39;;;;;;;17.87;46.37;100140.62;;;;-51
2021/01/08 01:07:03;;;;;;;2.29;2.09;;;;;;;17.86;46.39;100140.12;;;;-51
2021/01/08 01:10:03;;;;;;;3.01;2.13;;;;;;;17.84;46.39;100137.42;;;;-51
2021/01/08 01:13:03;;;;;;;2.47;2.24;;;;;;;17.82;46.39;100134.87;;;;-51
2021/01/08 01:16:03;;;;;;;2.40;2.20;;;;;;;17.80;46.42;100137.36;;;;-52
2021/01/08 01:19:03;;;;;;;2.45;2.25;;;;;;;17.78;46.47;100139.88;;;;-51
2021/01/08 01:22:03;;;;;;;2.43;2.23;;;;;;;17.78;46.42;100138.72;;;;-51
2021/01/08 01:25:03;;;;;;;2.40;2.20;;;;;;;17.76;46.47;100137.16;;;;-52
2021/01/08 01:28:03;;;;;;;2.40;2.20;;;;;;;17.75;46.44;100143.89;;;;-51
2021/01/08 01:31:03;;;;;;;2.30;2.10;;;;;;;17.73;46.46;100145.01;;;;-51
2021/01/08 01:34:05;;;;;;;2.38;2.18;;;;;;;17.72;46.46;100142.07;;;;-51
2021/01/08 01:37:03;;;;;;;2.32;2.12;;;;;;;17.71;46.48;100148.16;;;;-52
2021/01/08 01:40:03;;;;;;;2.38;2.18;;;;;;;17.69;46.45;100143.52;;;;-52
2021/01/08 01:43:03;;;;;;;2.25;2.07;;;;;;;17.67;46.47;100143.98;;;;-52
2021/01/08 01:46:03;;;;;;;2.31;2.11;;;;;;;17.66;46.47;100149.83;;;;-51
2021/01/08 01:49:03;;;;;;;2.27;2.07;;;;;;;17.64;46.48;100144.38;;;;-51
2021/01/08 01:52:03;;;;;;;2.44;2.19;;;;;;;17.64;46.50;100148.00;;;;-51
2021/01/08 01:55:03;;;;;;;2.42;2.22;;;;;;;17.61;46.49;100144.66;;;;-52
2021/01/08 01:58:03;;;;;;;2.32;2.12;;;;;;;17.60;46.47;100146.45;;;;-50
2021/01/08 02:01:03;;;;;;;2.35;2.15;;;;;;;17.58;46.58;100143.27;;;;-52
2021/01/08 02:04:03;;;;;;;2.36;2.16;;;;;;;17.57;46.47;100141.78;;;;-52
2021/01/08 02:07:03;;;;;;;3.10;2.12;;;;;;;17.56;46.50;100142.36;;;;-51
2021/01/08 02:10:03;;;;;;;2.42;2.22;;;;;;;17.54;46.54;100142.50;;;;-50
2021/01/08 02:13:03;;;;;;;2.40;2.20;;;;;;;17.54;46.55;100141.53;;;;-51
2021/01/08 02:16:03;;;;;;;2.26;2.09;;;;;;;17.53;46.53;100147.34;;;;-50
2021/01/08 02:19:03;;;;;;;2.39;2.19;;;;;;;17.51;46.55;100141.23;;;;-51
2021/01/08 02:22:03;;;;;;;2.25;2.05;;;;;;;17.50;46.48;100143.52;;;;-52
2021/01/08 02:25:03;;;;;;;2.25;2.05;;;;;;;17.50;46.56;100144.00;;;;-51
2021/01/08 02:28:03;;;;;;;2.31;2.11;;;;;;;17.48;46.57;100141.87;;;;-52
2021/01/08 02:31:03;;;;;;;2.24;2.04;;;;;;;17.47;46.57;100139.29;;;;-51
2021/01/08 02:34:03;;;;;;;2.21;2.01;;;;;;;17.46;46.55;100135.94;;;;-51
2021/01/08 02:37:03;;;;;;;2.20;2.00;;;;;;;17.44;46.59;100133.89;;;;-52
2021/01/08 02:40:03;;;;;;;2.11;1.98;;;;;;;17.43;46.58;100135.28;;;;-52
2021/01/08 02:43:03;;;;;;;2.14;1.94;;;;;;;17.43;46.56;100135.52;;;;-52
2021/01/08 02:46:04;;;;;;;2.16;2.02;;;;;;;17.41;46.53;100132.66;;;;-51
2021/01/08 02:49:03;;;;;;;2.32;2.12;;;;;;;17.40;46.61;100130.38;;;;-51
2021/01/08 02:52:03;;;;;;;2.21;1.95;;;;;;;17.38;46.60;100131.00;;;;-50
2021/01/08 02:55:03;;;;;;;2.23;2.05;;;;;;;17.38;46.58;100132.14;;;;-52
2021/01/08 02:58:04;;;;;;;2.20;2.00;;;;;;;17.37;46.68;100131.98;;;;-50
2021/01/08 03:01:03;;;;;;;2.20;2.00;;;;;;;17.35;46.60;100124.02;;;;-54
2021/01/08 03:04:03;;;;;;;2.32;2.12;;;;;;;17.34;46.59;100126.98;;;;-50
2021/01/08 03:07:04;;;;;;;2.19;2.00;;;;;;;17.33;46.63;100127.56;;;;-50
2021/01/08 03:10:03;;;;;;;2.04;1.92;;;;;;;17.33;46.61;100125.13;;;;-54
2021/01/08 03:13:03;;;;;;;2.19;2.03;;;;;;;17.31;46.63;100128.75;;;;-51
2021/01/08 03:16:03;;;;;;;2.15;1.98;;;;;;;17.30;46.61;100129.38;;;;-50
2021/01/08 03:19:03;;;;;;;2.23;2.03;;;;;;;17.29;46.67;100126.14;;;;-50
2021/01/08 03:22:03;;;;;;;2.11;1.91;;;;;;;17.28;46.67;100127.41;;;;-50
2021/01/08 03:25:03;;;;;;;2.33;2.11;;;;;;;17.28;46.68;100124.58;;;;-50
2021/01/08 03:28:03;;;;;;;2.26;2.06;;;;;;;17.27;46.63;100123.61;;;;-52
2021/01/08 03:31:03;;;;;;;2.41;2.21;;;;;;;17.26;46.63;100124.42;;;;-50
2021/01/08 03:34:03;;;;;;;2.31;2.11;;;;;;;17.25;46.68;100127.39;;;;-51
2021/01/08 03:37:03;;;;;;;2.19;1.99;;;;;;;17.23;46.68;100118.22;;;;-50
2021/01/08 03:40:03;;;;;;;2.23;2.03;;;;;;;17.23;46.70;100122.52;;;;-50
2021/01/08 03:43:03;;;;;;;2.21;2.01;;;;;;;17.23;46.63;100121.06;;;;-50
2021/01/08 03:46:03;;;;;;;2.20;2.00;;;;;;;17.22;46.63;100123.89;;;;-54
2021/01/08 03:49:03;;;;;;;2.21;2.01;;;;;;;17.20;46.66;100122.63;;;;-54
2021/01/08 03:52:03;;;;;;;2.29;2.09;;;;;;;17.20;46.70;100119.48;;;;-53
2021/01/08 03:55:03;;;;;;;2.31;2.11;;;;;;;17.19;46.69;100121.59;;;;-51
2021/01/08 03:58:03;;;;;;;2.00;1.90;;;;;;;17.16;46.75;100119.38;;;;-52
2021/01/08 04:01:03;;;;;;;2.15;1.95;;;;;;;17.16;46.72;100119.46;;;;-50
2021/01/08 04:04:03;;;;;;;2.13;1.97;;;;;;;17.16;46.69;100116.20;;;;-51
2021/01/08 04:07:03;;;;;;;2.27;2.07;;;;;;;17.15;46.67;100114.42;;;;-50
2021/01/08 04:10:03;;;;;;;1.97;1.87;;;;;;;17.14;46.70;100112.80;;;;-49
2021/01/08 04:13:03;;;;;;;1.98;1.88;;;;;;;17.12;46.71;100112.21;;;;-50
2021/01/08 04:16:03;;;;;;;2.03;1.93;;;;;;;17.12;46.71;100112.83;;;;-52
2021/01/08 04:19:03;;;;;;;2.26;2.06;;;;;;;17.10;46.75;100111.87;;;;-51
2021/01/08 04:22:03;;;;;;;2.22;2.02;;;;;;;17.09;46.72;100108.84;;;;-52
2021/01/08 04:25:03;;;;;;;2.39;2.19;;;;;;;17.09;46.71;100107.55;;;;-50
2021/01/08 04:28:03;;;;;;;2.18;1.98;;;;;;;17.10;46.72;100109.98;;;;-49
2021/01/08 04:31:03;;;;;;;2.37;2.17;;;;;;;17.07;46.69;100104.37;;;;-50
2021/01/08 04:34:03;;;;;;;2.10;2.00;;;;;;;17.07;46.74;100102.59;;;;-54
2021/01/08 04:37:03;;;;;;;2.28;2.08;;;;;;;17.06;46.76;100098.47;;;;-54
2021/01/08 04:40:03;;;;;;;2.34;2.14;;;;;;;17.05;46.84;100098.77;;;;-50
2021/01/08 04:43:03;;;;;;;2.15;1.97;;;;;;;17.04;46.79;100099.98;;;;-50
2021/01/08 04:46:03;;;;;;;2.26;2.06;;;;;;;17.04;46.69;100100.95;;;;-50
2021/01/08 04:49:03;;;;;;;2.27;2.07;;;;;;;17.02;46.78;100100.94;;;;-51
2021/01/08 04:52:03;;;;;;;2.09;1.92;;;;;;;17.01;46.70;100100.34;;;;-52
2021/01/08 04:55:03;;;;;;;2.30;2.10;;;;;;;17.00;46.74;100102.93;;;;-50
2021/01/08 04:58:03;;;;;;;2.23;2.03;;;;;;;16.99;46.80;100105.25;;;;-50
2021/01/08 05:01:03;;;;;;;2.30;2.10;;;;;;;16.99;46.78;100102.02;;;;-51
2021/01/08 05:04:03;;;;;;;2.31;2.11;;;;;;;16.97;46.75;100101.02;;;;-52
2021/01/08 05:07:03;;;;;;;4.36;2.27;;;;;;;16.98;46.79;100102.50;;;;-51
2021/01/08 05:10:03;;;;;;;2.73;2.11;;;;;;;16.97;46.75;100103.77;;;;-50
2021/01/08 05:13:03;;;;;;;2.61;2.04;;;;;;;16.96;46.76;100103.70;;;;-51
2021/01/08 05:16:03;;;;;;;2.25;1.99;;;;;;;16.95;46.71;100101.73;;;;-52
2021/01/08 05:19:04;;;;;;;2.61;2.20;;;;;;;16.94;46.72;100102.30;;;;-51
2021/01/08 05:22:03;;;;;;;3.16;2.28;;;;;;;16.93;46.73;100104.45;;;;-50
2021/01/08 05:25:03;;;;;;;2.30;2.10;;;;;;;16.92;46.68;100103.08;;;;-50
2021/01/08 05:28:03;;;;;;;3.23;2.30;;;;;;;16.91;46.75;100102.60;;;;-49
2021/01/08 05:31:03;;;;;;;3.10;2.20;;;;;;;16.90;46.70;100101.04;;;;-50
2021/01/08 05:34:03;;;;;;;2.30;2.10;;;;;;;16.90;46.69;100106.46;;;;-50
2021/01/08 05:37:03;;;;;;;2.30;2.10;;;;;;;16.89;46.69;100099.06;;;;-51
2021/01/08 05:40:03;;;;;;;12.07;2.49;;;;;;;16.89;46.76;100105.66;;;;-51
2021/01/08 05:43:03;;;;;;;8.67;5.55;;;;;;;16.65;43.85;100103.14;;;;-51
2021/01/08 05:46:03;;;;;;;9.26;6.49;;;;;;;16.31;43.24;100105.60;;;;-56
2021/01/08 05:49:03;;;;;;;9.21;6.73;;;;;;;16.27;43.84;100108.37;;;;-56
2021/01/08 05:52:03;;;;;;;7.65;5.75;;;;;;;16.32;44.77;100112.34;;;;-55
2021/01/08 05:55:03;;;;;;;6.58;5.30;;;;;;;16.38;45.09;100106.60;;;;-56
2021/01/08 05:58:03;;;;;;;5.99;5.08;;;;;;;16.43;45.24;100108.52;;;;-54
2021/01/08 06:01:03;;;;;;;4.93;4.36;;;;;;;16.46;45.34;100105.66;;;;-60
2021/01/08 06:04:03;;;;;;;5.05;4.11;;;;;;;16.48;45.48;100108.20;;;;-60
2021/01/08 06:07:03;;;;;;;4.69;4.09;;;;;;;16.49;45.53;100107.87;;;;-54
2021/01/08 06:10:03;;;;;;;5.65;3.99;;;;;;;16.51;45.60;100109.84;;;;-58
2021/01/08 06:13:03;;;;;;;5.56;3.96;;;;;;;16.52;45.64;100109.46;;;;-58
2021/01/08 06:16:03;;;;;;;3.95;3.55;;;;;;;16.54;45.75;100110.46;;;;-58
2021/01/08 06:19:03;;;;;;;4.56;3.61;;;;;;;16.57;45.68;100110.41;;;;-59
2021/01/08 06:22:03;;;;;;;4.41;3.38;;;;;;;16.60;45.73;100105.89;;;;-57
2021/01/08 06:25:03;;;;;;;3.41;3.11;;;;;;;16.62;45.85;100109.43;;;;-58
2021/01/08 06:28:03;;;;;;;3.97;3.29;;;;;;;16.65;45.82;100111.64;;;;-57
2021/01/08 06:31:03;;;;;;;3.55;2.82;;;;;;;16.67;45.88;100106.64;;;;-59
2021/01/08 06:34:03;;;;;;;3.21;2.83;;;;;;;16.70;45.94;100108.77;;;;-58
2021/01/08 06:37:03;;;;;;;3.34;2.79;;;;;;;16.73;46.07;100110.53;;;;-60
2021/01/08 06:40:03;;;;;;;2.92;2.60;;;;;;;16.77;46.14;100113.66;;;;-56
2021/01/08 06:43:04;;;;;;;2.67;2.47;;;;;;;16.79;46.23;100115.62;;;;-60
2021/01/08 06:46:03;;;;;;;3.32;2.69;;;;;;;16.83;46.21;100118.02;;;;-57
2021/01/08 06:49:04;;;;;;;3.72;2.59;;;;;;;16.87;46.23;100122.19;;;;-54
2021/01/08 06:52:03;;;;;;;2.49;2.23;;;;;;;16.91;46.27;100122.40;;;;-54
2021/01/08 06:55:04;;;;;;;3.96;2.37;;;;;;;16.95;46.23;100121.64;;;;-59
2021/01/08 06:58:03;;;;;;;2.39;2.19;;;;;;;16.99;46.31;100122.58;;;;-60
2021/01/08 07:01:03;;;;;;;2.51;2.15;;;;;;;17.04;46.36;100126.45;;;;-60
2021/01/08 07:04:03;;;;;;;2.64;2.24;;;;;;;17.09;46.39;100128.92;;;;-59
2021/01/08 07:07:03;;;;;;;2.49;2.27;;;;;;;17.12;46.44;100137.47;;;;-59
2021/01/08 07:10:03;;;;;;;2.43;2.23;;;;;;;17.16;46.42;100135.22;;;;-60
2021/01/08 07:13:03;;;;;;;2.65;2.28;;;;;;;17.20;46.48;100137.38;;;;-60
2021/01/08 07:16:03;;;;;;;2.39;2.19;;;;;;;17.23;46.50;100145.44;;;;-58
2021/01/08 07:19:03;;;;;;;3.32;2.14;;;;;;;17.25;46.53;100143.75;;;;-59
2021/01/08 07:22:03;;;;;;;2.15;2.00;;;;;;;17.28;46.57;100148.06;;;;-54
2021/01/08 07:25:05;;;;;;;2.21;2.01;;;;;;;17.30;46.54;100149.78;;;;-54
2021/01/08 07:28:03;;;;;;;2.42;2.20;;;;;;;17.32;46.60;100153.53;;;;-54
2021/01/08 07:31:03;;;;;;;2.33;2.13;;;;;;;17.33;46.45;100156.20;;;;-54
2021/01/08 07:34:03;;;;;;;2.72;2.13;;;;;;;17.35;46.44;100159.41;;;;-60
2021/01/08 07:37:03;;;;;;;2.01;1.90;;;;;;;17.35;46.44;100165.97;;;;-59
2021/01/08 07:40:03;;;;;;;2.48;1.99;;;;;;;17.36;46.43;100168.08;;;;-54
2021/01/08 07:43:03;;;;;;;2.58;2.29;;;;;;;17.36;46.42;100168.89;;;;-59
2021/01/08 07:46:03;;;;;;;2.47;2.05;;;;;;;17.36;46.43;100175.28;;;;-59
2021/01/08 07:49:03;;;;;;;2.05;1.89;;;;;;;17.36;46.39;100178.04;;;;-60
2021/01/08 07:52:03;;;;;;;2.22;2.02;;;;;;;17.36;46.41;100179.91;;;;-57
2021/01/08 07:55:03;;;;;;;2.15;1.95;;;;;;;17.35;46.39;100183.55;;;;-56
2021/01/08 07:58:04;;;;;;;2.01;1.90;;;;;;;17.35;46.38;100184.77;;;;-59
2021/01/08 08:01:03;;;;;;;2.15;1.95;;;;;;;17.34;46.43;100191.14;;;;-60
2021/01/08 08:04:03;;;;;;;2.11;1.97;;;;;;;17.35;46.41;100194.00;;;;-54
2021/01/08 08:07:03;;;;;;;2.15;1.99;;;;;;;17.34;46.43;100198.27;;;;-60
2021/01/08 08:10:03;;;;;;;2.08;1.88;;;;;;;17.33;46.46;100202.72;;;;-59
2021/01/08 08:13:03;;;;;;;2.31;2.11;;;;;;;17.33;46.39;100207.39;;;;-59
2021/01/08 08:16:03;;;;;;;2.27;2.07;;;;;;;17.32;46.42;100212.58;;;;-59
2021/01/08 08:19:03;;;;;;;2.09;1.90;;;;;;;17.31;46.39;100213.14;;;;-59
2021/01/08 08:22:03;;;;;;;2.09;1.89;;;;;;;17.31;46.39;100219.95;;;;-60
2021/01/08 08:25:03;;;;;;;1.97;1.81;;;;;;;17.31;46.47;100223.41;;;;-54
2021/01/08 08:28:03;;;;;;;2.21;2.01;;;;;;;17.30;46.35;100225.27;;;;-54
2021/01/08 08:31:03;;;;;;;2.17;1.97;;;;;;;17.30;46.37;100229.80;;;;-54
2021/01/08 08:34:03;;;;;;;2.02;1.91;;;;;;;17.29;46.33;100229.56;;;;-54
2021/01/08 08:37:03;;;;;;;1.89;1.79;;;;;;;17.28;46.43;100231.72;;;;-54
2021/01/08 08:40:03;;;;;;;2.20;2.00;;;;;;;17.28;46.46;100237.55;;;;-54
2021/01/08 08:43:03;;;;;;;2.08;1.88;;;;;;;17.27;46.33;100239.91;;;;-54
2021/01/08 08:46:03;;;;;;;2.09;1.89;;;;;;;17.27;46.37;100244.03;;;;-59
2021/01/08 08:49:03;;;;;;;2.18;1.90;;;;;;;17.27;46.41;100245.73;;;;-59
2021/01/08 08:52:05;;;;;;;2.97;2.13;;;;;;;17.26;46.69;100249.14;;;;-54
2021/01/08 08:55:03;;;;;;;2.20;1.94;;;;;;;17.28;46.79;100250.59;;;;-51
2021/01/08 08:58:03;;;;;;;2.18;1.98;;;;;;;17.31;47.09;100254.62;;;;-52
2021/01/08 09:01:03;;;;;;;2.05;1.83;;;;;;;17.35;47.21;100251.18;;;;-55
2021/01/08 09:04:03;;;;;;;2.71;2.03;;;;;;;17.40;47.50;100251.80;;;;-49
2021/01/08 09:07:03;;;;;;;3.79;2.00;;;;;;;17.46;47.23;100256.23;;;;-53
2021/01/08 09:10:03;;;;;;;2.05;1.85;;;;;;;17.48;46.87;100259.09;;;;-52
2021/01/08 09:13:03;;;;;;;3.11;1.92;;;;;;;17.52;46.87;100260.77;;;;-57
2021/01/08 09:16:03;;;;;;;2.12;1.90;;;;;;;17.55;46.84;100264.02;;;;-53
2021/01/08 09:19:03;;;;;;;1.95;1.82;;;;;;;17.57;46.81;100261.37;;;;-53
2021/01/08 09:22:03;;;;;;;2.09;1.80;;;;;;;17.61;46.72;100262.14;;;;-53
2021/01/08 09:25:03;;;;;;;2.83;1.86;;;;;;;17.64;46.64;100264.71;;;;-57
2021/01/08 09:28:03;;;;;;;1.80;1.70;;;;;;;17.67;46.69;100267.81;;;;-57
2021/01/08 09:31:03;;;;;;;2.31;1.89;;;;;;;17.70;46.61;100268.72;;;;-57
2021/01/08 09:34:03;;;;;;;1.77;1.67;;;;;;;17.72;46.63;100269.66;;;;-57
2021/01/08 09:37:03;;;;;;;1.99;1.79;;;;;;;17.76;46.60;100273.97;;;;-53
2021/01/08 09:40:03;;;;;;;2.11;1.80;;;;;;;17.78;46.57;100273.29;;;;-53
2021/01/08 09:43:03;;;;;;;1.96;1.78;;;;;;;17.81;46.56;100277.12;;;;-53
2021/01/08 09:46:03;;;;;;;3.47;1.89;;;;;;;17.87;46.79;100278.75;;;;-55
2021/01/08 09:49:03;;;;;;;1.96;1.70;;;;;;;17.93;46.89;100279.30;;;;-54
2021/01/08 09:52:03;;;;;;;3.66;2.08;;;;;;;17.98;46.74;100284.45;;;;-51
2021/01/08 09:55:03;;;;;;;2.87;1.91;;;;;;;18.02;47.14;100287.48;;;;-51
2021/01/08 09:58:03;;;;;;;3.71;1.93;;;;;;;18.06;47.07;100290.28;;;;-52
2021/01/08 10:01:03;;;;;;;3.22;1.95;;;;;;;18.09;47.11;100289.48;;;;-57
2021/01/08 10:04:03;;;;;;;2.18;1.98;;;;;;;18.14;46.81;100292.63;;;;-52
2021/01/08 10:07:03;;;;;;;2.99;1.90;;;;;;;18.17;46.86;100293.30;;;;-52
2021/01/08 10:10:03;;;;;;;3.26;1.77;;;;;;;18.21;46.84;100296.66;;;;-52
2021/01/08 10:13:07;;;;;;;3.35;1.89;;;;;;;18.26;47.17;100294.75;;;;-58
2021/01/08 10:16:03;;;;;;;2.71;1.91;;;;;;;18.30;47.17;100296.48;;;;-55
2021/01/08 10:19:03;;;;;;;3.02;1.87;;;;;;;18.33;46.89;100295.39;;;;-54
2021/01/08 10:22:03;;;;;;;2.11;1.79;;;;;;;18.33;46.59;100300.66;;;;-54
2021/01/08 10:25:03;;;;;;;2.01;1.76;;;;;;;18.34;46.48;100296.20;;;;-54
2021/01/08 10:28:03;;;;;;;2.26;1.80;;;;;;;18.35;46.66;100302.47;;;;-54
2021/01/08 10:31:03;;;;;;;2.05;1.70;;;;;;;18.36;46.49;100298.08;;;;-54
2021/01/08 10:34:03;;;;;;;1.89;1.76;;;;;;;18.38;46.53;100298.34;;;;-54
2021/01/08 10:37:03;;;;;;;2.67;1.77;;;;;;;18.39;46.50;100298.28;;;;-55
2021/01/08 10:40:03;;;;;;;2.61;1.80;;;;;;;18.40;46.47;100298.52;;;;-55
2021/01/08 10:43:03;;;;;;;3.28;1.73;;;;;;;18.42;46.35;100294.48;;;;-56
2021/01/08 10:46:03;;;;;;;1.71;1.60;;;;;;;18.43;46.38;100292.72;;;;-56
2021/01/08 10:49:03;;;;;;;1.81;1.71;;;;;;;18.45;46.37;100291.84;;;;-56
2021/01/08 10:52:03;;;;;;;1.70;1.60;;;;;;;18.46;46.31;100291.42;;;;-56
2021/01/08 10:55:03;;;;;;;1.89;1.69;;;;;;;18.48;46.27;100292.98;;;;-56
2021/01/08 10:58:03;;;;;;;2.29;1.71;;;;;;;18.51;46.23;100293.00;;;;-55
2021/01/08 11:01:03;;;;;;;2.03;1.74;;;;;;;18.51;46.20;100291.08;;;;-56
2021/01/08 11:04:03;;;;;;;2.50;1.74;;;;;;;18.53;46.19;100289.85;;;;-56
2021/01/08 11:07:03;;;;;;;1.90;1.69;;;;;;;18.55;46.19;100290.03;;;;-54
2021/01/08 11:10:03;;;;;;;1.58;1.48;;;;;;;18.56;46.12;100287.77;;;;-54
2021/01/08 11:13:03;;;;;;;1.88;1.73;;;;;;;18.58;46.08;100284.63;;;;-54
2021/01/08 11:16:03;;;;;;;4.71;1.77;;;;;;;18.61;46.27;100281.63;;;;-54
2021/01/08 11:19:03;;;;;;;1.96;1.77;;;;;;;18.64;46.20;100277.85;;;;-60
2021/01/08 11:22:03;;;;;;;3.03;1.82;;;;;;;18.68;46.21;100279.09;;;;-60
2021/01/08 11:25:03;;;;;;;3.93;1.88;;;;;;;18.72;46.47;100276.38;;;;-57
2021/01/08 11:28:03;;;;;;;4.85;1.87;;;;;;;18.72;46.27;100275.40;;;;-52
2021/01/08 11:31:03;;;;;;;2.83;1.87;;;;;;;18.70;45.55;100274.89;;;;-57
2021/01/08 11:34:03;;;;;;;3.61;2.16;;;;;;;18.72;45.09;100276.21;;;;-51
2021/01/08 11:37:03;;;;;;;9.91;1.89;;;;;;;18.73;45.80;100274.33;;;;-54
2021/01/08 11:40:03;;;;;;;6.25;1.99;;;;;;;18.74;45.68;100274.27;;;;-58
2021/01/08 11:43:03;;;;;;;4.17;1.77;;;;;;;18.76;45.51;100270.63;;;;-59
2021/01/08 11:46:03;;;;;;;8.57;2.36;;;;;;;18.80;46.35;100268.96;;;;-51
2021/01/08 11:49:03;;;;;;;4.82;2.15;;;;;;;18.82;46.21;100268.48;;;;-52
2021/01/08 11:52:03;;;;;;;2.34;1.87;;;;;;;18.85;46.22;100272.50;;;;-53
2021/01/08 11:55:03;;;;;;;4.92;2.10;;;;;;;18.92;46.58;100279.27;;;;-53
2021/01/08 11:58:03;;;;;;;5.63;1.84;;;;;;;18.93;46.55;100277.02;;;;-56
2021/01/08 12:01:03;;;;;;;5.82;1.97;;;;;;;18.98;46.52;100277.77;;;;-55
2021/01/08 12:04:03;;;;;;;5.62;2.15;;;;;;;18.98;46.58;100277.27;;;;-53
2021/01/08 12:07:03;;;;;;;7.47;1.79;;;;;;;18.99;46.69;100279.32;;;;-51
2021/01/08 12:10:03;;;;;;;8.73;2.09;;;;;;;19.02;46.51;100286.88;;;;-50
2021/01/08 12:13:03;;;;;;;7.22;2.24;;;;;;;19.04;46.29;100286.16;;;;-54
2021/01/08 12:16:03;;;;;;;5.01;1.82;;;;;;;19.02;45.97;100284.27;;;;-53
2021/01/08 12:19:03;;;;;;;3.44;1.96;;;;;;;19.02;46.07;100287.20;;;;-52
2021/01/08 12:22:03;;;;;;;4.33;1.93;;;;;;;19.02;46.11;100287.94;;;;-53
2021/01/08 12:25:03;;;;;;;2.23;1.66;;;;;;;19.01;46.01;100287.86;;;;-53
2021/01/08 12:28:04;;;;;;;3.35;1.81;;;;;;;19.01;46.01;100289.48;;;;-53
2021/01/08 12:31:03;;;;;;;3.21;1.83;;;;;;;19.01;46.00;100287.94;;;;-53
2021/01/08 12:34:03;;;;;;;2.77;1.81;;;;;;;19.02;45.93;100288.59;;;;-53
2021/01/08 12:37:03;;;;;;;2.11;1.83;;;;;;;19.02;45.95;100286.39;;;;-53
2021/01/08 12:40:03;;;;;;;2.92;1.77;;;;;;;19.02;45.93;100284.60;;;;-54
2021/01/08 12:43:03;;;;;;;3.40;1.75;;;;;;;19.02;45.87;100289.72;;;;-53
2021/01/08 12:46:03;;;;;;;3.38;1.71;;;;;;;19.03;45.91;100286.66;;;;-54
2021/01/08 12:49:05;;;;;;;2.55;1.74;;;;;;;19.04;45.86;100289.73;;;;-54
2021/01/08 12:52:03;;;;;;;2.64;1.79;;;;;;;19.04;45.85;100291.76;;;;-54
2021/01/08 12:55:03;;;;;;;3.25;1.84;;;;;;;19.05;45.84;100287.53;;;;-53
2021/01/08 12:58:03;;;;;;;2.20;1.70;;;;;;;19.06;45.80;100290.64;;;;-54
2021/01/08 13:01:03;;;;;;;3.17;1.82;;;;;;;19.10;45.96;100288.72;;;;-59
2021/01/08 13:04:03;;;;;;;2.76;1.79;;;;;;;19.12;46.19;100285.23;;;;-52
2021/01/08 13:07:03;;;;;;;3.23;1.64;;;;;;;19.16;46.44;100284.11;;;;-49
2021/01/08 13:10:03;;;;;;;3.57;1.77;;;;;;;19.18;46.42;100288.34;;;;-58
2021/01/08 13:13:03;;;;;;;3.61;1.73;;;;;;;19.19;46.31;100287.36;;;;-52
2021/01/08 13:16:03;;;;;;;2.67;1.81;;;;;;;19.22;46.27;100283.09;;;;-49
2021/01/08 13:19:03;;;;;;;2.48;1.73;;;;;;;19.25;46.38;100284.06;;;;-53
2021/01/08 13:22:03;;;;;;;1.69;1.59;;;;;;;19.26;46.47;100287.06;;;;-52
2021/01/08 13:25:03;;;;;;;3.25;1.62;;;;;;;19.27;46.49;100284.88;;;;-53
2021/01/08 13:28:03;;;;;;;3.45;1.70;;;;;;;19.32;46.73;100287.01;;;;-52
2021/01/08 13:31:03;;;;;;;2.11;1.77;;;;;;;19.33;46.49;100290.69;;;;-56
2021/01/08 13:34:03;;;;;;;2.41;1.59;;;;;;;19.35;46.72;100295.56;;;;-50
2021/01/08 13:37:04;;;;;;;2.07;1.60;;;;;;;19.36;46.56;100297.86;;;;-47
2021/01/08 13:40:03;;;;;;;1.89;1.71;;;;;;;19.38;46.52;100301.91;;;;-51
2021/01/08 13:43:03;;;;;;;2.17;1.65;;;;;;;19.40;46.55;100304.59;;;;-50
2021/01/08 13:46:03;;;;;;;2.55;1.59;;;;;;;19.41;46.57;100305.83;;;;-54
2021/01/08 13:49:03;;;;;;;1.89;1.50;;;;;;;19.43;46.56;100307.87;;;;-47
2021/01/08 13:52:03;;;;;;;2.27;1.82;;;;;;;19.43;46.46;100308.13;;;;-53
2021/01/08 13:55:03;;;;;;;2.09;1.79;;;;;;;19.46;46.54;100311.70;;;;-52
2021/01/08 13:58:03;;;;;;;2.55;1.65;;;;;;;19.47;46.51;100310.58;;;;-46
2021/01/08 14:01:03;;;;;;;2.27;1.85;;;;;;;19.47;46.28;100310.91;;;;-51
2021/01/08 14:04:03;;;;;;;5.04;1.79;;;;;;;19.43;45.82;100317.14;;;;-51
2021/01/08 14:07:03;;;;;;;2.51;1.97;;;;;;;19.40;45.38;100326.08;;;;-50
2021/01/08 14:10:04;;;;;;;2.90;2.05;;;;;;;19.38;44.59;100326.06;;;;-57
2021/01/08 14:13:03;;;;;;;2.88;1.97;;;;;;;19.38;44.47;100332.41;;;;-52
2021/01/08 14:16:03;;;;;;;2.17;1.97;;;;;;;19.38;44.91;100339.37;;;;-50
2021/01/08 14:19:03;;;;;;;3.59;2.10;;;;;;;19.37;44.49;100338.41;;;;-62
2021/01/08 14:22:03;;;;;;;2.23;1.97;;;;;;;19.38;44.42;100343.19;;;;-47
2021/01/08 14:25:03;;;;;;;2.33;1.99;;;;;;;19.37;44.63;100350.51;;;;-58
2021/01/08 14:28:03;;;;;;;2.81;2.03;;;;;;;19.38;45.21;100349.22;;;;-51
2021/01/08 14:31:03;;;;;;;3.48;2.20;;;;;;;19.37;44.01;100354.08;;;;-49
2021/01/08 14:34:03;;;;;;;4.29;2.21;;;;;;;19.38;44.19;100354.97;;;;-54
2021/01/08 14:37:04;;;;;;;3.01;2.10;;;;;;;19.39;44.11;100353.20;;;;-52
2021/01/08 14:40:03;;;;;;;2.36;2.13;;;;;;;19.40;44.35;100353.92;;;;-46
2021/01/08 14:43:03;;;;;;;2.43;2.11;;;;;;;19.42;44.70;100353.93;;;;-56
2021/01/08 14:46:03;;;;;;;2.53;2.03;;;;;;;19.43;44.73;100356.30;;;;-54
2021/01/08 14:49:03;;;;;;;2.30;2.10;;;;;;;19.43;44.77;100359.56;;;;-61
2021/01/08 14:52:03;;;;;;;2.31;2.11;;;;;;;19.45;44.65;100363.56;;;;-58
2021/01/08 14:55:03;;;;;;;2.85;2.17;;;;;;;19.45;44.44;100361.11;;;;-56
2021/01/08 14:58:04;;;;;;;2.37;2.16;;;;;;;19.44;44.12;100363.53;;;;-56
2021/01/08 15:01:03;;;;;;;2.48;2.11;;;;;;;19.44;44.04;100368.68;;;;-51
2021/01/08 15:04:03;;;;;;;2.53;2.10;;;;;;;19.44;44.11;100369.38;;;;-51
2021/01/08 15:07:03;;;;;;;2.30;2.10;;;;;;;19.45;44.32;100372.25;;;;-53
2021/01/08 15:10:03;;;;;;;2.33;2.13;;;;;;;19.45;44.02;100372.98;;;;-52
2021/01/08 15:13:03;;;;;;;2.31;2.11;;;;;;;19.46;44.05;100376.63;;;;-47
2021/01/08 15:16:03;;;;;;;2.29;2.09;;;;;;;19.48;44.39;100375.50;;;;-51
2021/01/08 15:19:03;;;;;;;2.31;2.08;;;;;;;19.51;44.72;100373.58;;;;-55
2021/01/08 15:22:03;;;;;;;4.97;2.19;;;;;;;19.53;44.74;100375.38;;;;-54
2021/01/08 15:25:03;;;;;;;3.68;2.18;;;;;;;19.55;44.91;100380.51;;;;-53
2021/01/08 15:28:03;;;;;;;5.77;2.06;;;;;;;19.54;44.73;100386.66;;;;-54
2021/01/08 15:31:03;;;;;;;5.16;1.95;;;;;;;19.54;45.11;100388.86;;;;-58
2021/01/08 15:34:03;;;;;;;5.53;2.20;;;;;;;19.54;44.67;100392.52;;;;-57
2021/01/08 15:37:04;;;;;;;4.08;2.21;;;;;;;19.54;44.74;100393.49;;;;-50
2021/01/08 15:40:03;;;;;;;4.16;2.12;;;;;;;19.55;44.11;100396.45;;;;-53
2021/01/08 15:43:03;;;;;;;4.59;2.23;;;;;;;19.54;44.22;100395.05;;;;-51
2021/01/08 15:46:03;;;;;;;3.63;2.43;;;;;;;19.50;44.30;100398.68;;;;-54
2021/01/08 15:49:03;;;;;;;5.29;2.50;;;;;;;19.46;44.46;100398.98;;;;-58
2021/01/08 15:52:03;;;;;;;6.57;2.56;;;;;;;19.45;44.18;100403.87;;;;-50
2021/01/08 15:55:03;;;;;;;13.94;2.79;;;;;;;19.43;44.89;100409.94;;;;-56
2021/01/08 15:58:03;;;;;;;4.73;2.31;;;;;;;19.43;44.43;100413.36;;;;-51
2021/01/08 16:01:03;;;;;;;3.77;2.31;;;;;;;19.43;44.50;100412.95;;;;-59
2021/01/08 16:04:03;;;;;;;4.66;2.46;;;;;;;19.46;44.74;100416.53;;;;-58
2021/01/08 16:07:03;;;;;;;3.88;2.37;;;;;;;19.48;44.52;100416.14;;;;-56
2021/01/08 16:10:03;;;;;;;8.34;2.29;;;;;;;19.52;45.05;100420.31;;;;-50
2021/01/08 16:13:03;;;;;;;4.54;2.41;;;;;;;19.56;45.18;100421.95;;;;-56
2021/01/08 16:16:03;;;;;;;7.03;2.42;;;;;;;19.62;45.40;100425.57;;;;-56
2021/01/08 16:19:03;;;;;;;5.43;2.38;;;;;;;19.64;45.31;100430.86;;;;-54
2021/01/08 16:22:03;;;;;;;15.65;2.41;;;;;;;19.66;45.37;100431.86;;;;-59
2021/01/08 16:25:03;;;;;;;8.62;2.34;;;;;;;19.67;45.44;100435.83;;;;-51
2021/01/08 16:28:03;;;;;;;3.79;2.20;;;;;;;19.70;45.42;100439.59;;;;-51
2021/01/08 16:31:03;;;;;;;3.94;2.10;;;;;;;19.71;45.45;100440.34;;;;-53
2021/01/08 16:34:03;;;;;;;5.89;2.39;;;;;;;19.72;45.45;100438.91;;;;-52
2021/01/08 16:37:03;;;;;;;4.33;1.99;;;;;;;19.74;45.47;100444.45;;;;-51
2021/01/08 16:40:03;;;;;;;4.15;2.12;;;;;;;19.76;45.51;100443.23;;;;-51
2021/01/08 16:43:03;;;;;;;3.01;2.03;;;;;;;19.77;45.53;100447.63;;;;-50